Time;durP1;ratioP1;P1;durP2;ratioP2;P2;SDS_P1;SDS_P2;PMS_P1;PMS_P2;Temp;Humidity;BMP_temperature;BMP_pressure;BME280_temperature;BME280_humidity;BME280_pressure;Samples;Min_cycle;Max_cycle;Signal;HPM_P1;HPM_P2
2022/05/07 00:02:12;;;;;;;22.02;19.73;;;17.70;93.60;;;;;;4960434;28;20473;-84
2022/05/07 00:04:38;;;;;;;23.05;20.75;;;17.70;93.80;;;;;;4959929;28;20128;-83
2022/05/07 00:07:05;;;;;;;21.30;19.10;;;17.70;94.00;;;;;;4993829;28;20022;-83
2022/05/07 00:09:31;;;;;;;22.85;20.55;;;17.60;94.00;;;;;;4976107;28;20050;-88
2022/05/07 00:11:57;;;;;;;23.73;21.13;;;17.60;94.20;;;;;;4944127;28;20035;-82
2022/05/07 00:14:23;;;;;;;22.98;20.30;;;17.60;94.40;;;;;;4960307;28;20382;-83
2022/05/07 00:19:34;;;;;;;22.25;19.05;;;17.50;94.70;;;;;;4978614;28;20085;-83
2022/05/07 00:22:00;;;;;;;22.17;19.88;;;17.50;94.80;;;;;;4959928;28;20042;-83
2022/05/07 00:24:26;;;;;;;23.45;20.25;;;17.50;95.00;;;;;;4993396;28;20026;-82
2022/05/07 00:26:52;;;;;;;23.08;20.63;;;17.50;95.10;;;;;;4975597;28;20046;-83
2022/05/07 00:29:17;;;;;;;21.80;19.52;;;17.50;95.30;;;;;;4976035;28;20036;-83
2022/05/07 00:31:43;;;;;;;22.63;20.33;;;17.50;95.50;;;;;;4992888;28;20038;-83
2022/05/07 00:34:08;;;;;;;21.23;18.73;;;17.50;95.50;;;;;;4960006;28;20383;-83
2022/05/07 00:36:34;;;;;;;20.77;18.67;;;17.50;95.50;;;;;;4975593;28;20038;-83
2022/05/07 00:39:00;;;;;;;21.52;19.33;;;17.40;95.60;;;;;;4975925;28;20027;-83
2022/05/07 00:41:26;;;;;;;21.55;19.45;;;17.40;95.60;;;;;;4992803;28;20038;-83
2022/05/07 00:43:52;;;;;;;22.08;19.52;;;17.40;95.70;;;;;;4943703;28;20081;-83
2022/05/07 00:46:22;;;;;;;21.67;19.58;;;17.40;95.80;;;;;;4936573;28;1148368;-83
2022/05/07 00:48:48;;;;;;;22.70;20.48;;;17.40;96.00;;;;;;4976395;28;20033;-84
2022/05/07 00:53:58;;;;;;;22.95;20.55;;;17.30;96.00;;;;;;4993767;28;20093;-81
2022/05/07 00:56:24;;;;;;;23.42;21.10;;;17.20;96.00;;;;;;4976506;28;20022;-84
2022/05/07 00:58:51;;;;;;;24.42;21.83;;;17.20;96.00;;;;;;4944292;28;20027;-84
2022/05/07 01:01:17;;;;;;;26.40;21.00;;;17.20;96.00;;;;;;4993700;28;20081;-84
2022/05/07 01:03:45;;;;;;;29.58;22.95;;;17.20;96.00;;;;;;4960152;28;20100;-84
2022/05/07 01:06:12;;;;;;;25.40;22.40;;;17.20;96.20;;;;;;4976342;28;20125;-84
2022/05/07 01:08:37;;;;;;;27.48;21.20;;;17.10;96.30;;;;;;4993360;28;20401;-85
2022/05/07 01:11:03;;;;;;;22.95;20.15;;;17.10;96.40;;;;;;4960223;28;20125;-84
2022/05/07 01:13:30;;;;;;;23.80;19.00;;;17.10;96.50;;;;;;4976314;28;20031;-84
2022/05/07 01:15:57;;;;;;;21.20;18.92;;;17.10;96.50;;;;;;4959937;28;20106;-84
2022/05/07 01:18:23;;;;;;;29.13;21.77;;;17.00;96.60;;;;;;4960327;28;20033;-84
2022/05/07 01:20:49;;;;;;;33.42;23.25;;;17.00;96.70;;;;;;4975820;28;20030;-84
2022/05/07 01:23:16;;;;;;;26.20;22.55;;;17.00;96.80;;;;;;4976584;28;20537;-83
2022/05/07 01:25:41;;;;;;;29.20;22.50;;;17.00;96.90;;;;;;4960233;28;20042;-84
2022/05/07 01:28:10;;;;;;;28.60;22.27;;;17.00;96.90;;;;;;4976434;28;20125;-84
2022/05/07 01:30:36;;;;;;;27.50;24.13;;;16.90;97.00;;;;;;4944172;28;20061;-84
2022/05/07 01:33:03;;;;;;;44.28;26.38;;;16.90;97.10;;;;;;4960051;28;20022;-84
2022/05/07 01:35:29;;;;;;;42.38;27.30;;;16.90;97.20;;;;;;4976241;28;20081;-84
2022/05/07 01:37:54;;;;;;;40.80;26.60;;;16.90;97.30;;;;;;4976094;28;20422;-84
2022/05/07 01:40:20;;;;;;;31.27;24.38;;;16.90;97.40;;;;;;4959873;28;20038;-84
2022/05/07 01:42:46;;;;;;;31.13;24.58;;;16.80;97.40;;;;;;4960048;28;20364;-84
2022/05/07 01:45:11;;;;;;;36.88;25.60;;;16.80;97.40;;;;;;4960005;28;20505;-85
2022/05/07 01:50:22;;;;;;;38.55;25.00;;;16.80;97.50;;;;;;4979322;28;20108;-83
2022/05/07 01:52:48;;;;;;;27.38;22.50;;;16.70;97.50;;;;;;4963205;28;20026;-84
2022/05/07 01:55:14;;;;;;;29.77;23.25;;;16.70;97.60;;;;;;4947468;28;20034;-83
2022/05/07 01:57:39;;;;;;;26.88;22.63;;;16.70;97.70;;;;;;4947385;28;20030;-83
2022/05/07 02:00:05;;;;;;;28.00;22.15;;;16.70;97.80;;;;;;4979211;28;20427;-83
2022/05/07 02:02:31;;;;;;;23.30;20.90;;;16.60;97.80;;;;;;4947654;28;20068;-82
2022/05/07 02:04:57;;;;;;;25.70;22.25;;;16.60;97.80;;;;;;4980290;28;20036;-83
2022/05/07 02:07:22;;;;;;;26.00;21.63;;;16.60;97.80;;;;;;4963957;28;20022;-83
2022/05/07 02:09:48;;;;;;;22.77;20.38;;;16.50;97.90;;;;;;4978689;28;20486;-84
2022/05/07 02:12:14;;;;;;;23.50;19.58;;;16.50;98.30;;;;;;4947028;28;20029;-84
2022/05/07 02:14:39;;;;;;;21.00;18.77;;;16.50;98.10;;;;;;4946966;28;20438;-83
2022/05/07 02:17:05;;;;;;;22.50;19.80;;;16.40;98.20;;;;;;4963066;28;20030;-84
2022/05/07 02:19:31;;;;;;;22.88;20.48;;;16.40;98.40;;;;;;4978941;28;20022;-83
2022/05/07 02:21:56;;;;;;;22.85;20.50;;;16.40;98.40;;;;;;4996260;28;20093;-83
2022/05/07 02:24:22;;;;;;;25.17;21.02;;;16.40;98.40;;;;;;4963026;28;20038;-83
2022/05/07 02:26:48;;;;;;;22.95;20.25;;;16.30;98.50;;;;;;4962822;28;20030;-84
2022/05/07 02:29:14;;;;;;;21.90;19.60;;;16.30;98.60;;;;;;4946973;28;20027;-83
2022/05/07 02:31:40;;;;;;;23.05;20.17;;;16.30;98.60;;;;;;4978965;28;20494;-83
2022/05/07 02:34:06;;;;;;;22.70;19.88;;;16.30;98.60;;;;;;4962816;28;20489;-83
2022/05/07 02:36:32;;;;;;;24.40;21.33;;;16.30;98.70;;;;;;4979171;28;20026;-83
2022/05/07 02:38:59;;;;;;;22.25;20.05;;;16.20;98.80;;;;;;4978593;28;20081;-83
2022/05/07 02:44:09;;;;;;;22.55;19.98;;;16.20;98.90;;;;;;4981329;28;20077;-83
2022/05/07 02:46:35;;;;;;;22.38;20.00;;;16.20;99.00;;;;;;4962276;28;20442;-83
2022/05/07 02:49:01;;;;;;;21.85;19.42;;;16.20;99.20;;;;;;4978867;28;20046;-83
2022/05/07 02:51:26;;;;;;;23.95;21.15;;;16.10;99.30;;;;;;4979322;28;20034;-83
2022/05/07 02:53:52;;;;;;;22.00;19.70;;;16.10;99.40;;;;;;4962526;28;20027;-84
2022/05/07 02:56:18;;;;;;;23.08;20.55;;;16.10;99.50;;;;;;4962446;28;20455;-83
2022/05/07 02:58:43;;;;;;;22.45;20.25;;;16.10;99.60;;;;;;4978323;28;20034;-84
2022/05/07 03:01:09;;;;;;;23.02;20.63;;;16.10;99.70;;;;;;4977887;28;20475;-84
2022/05/07 03:03:35;;;;;;;22.80;20.40;;;16.10;99.70;;;;;;4946470;28;20030;-84
2022/05/07 03:06:00;;;;;;;23.83;21.00;;;16.10;99.90;;;;;;4978154;28;20462;-84
2022/05/07 03:08:26;;;;;;;22.20;19.98;;;16.10;99.90;;;;;;4962493;28;20034;-83
2022/05/07 03:10:52;;;;;;;22.30;19.75;;;16.10;99.90;;;;;;4995436;28;20022;-84
2022/05/07 03:13:18;;;;;;;23.10;20.50;;;16.00;99.90;;;;;;4962257;28;20519;-83
2022/05/07 03:15:44;;;;;;;21.98;19.70;;;16.00;99.90;;;;;;4995513;28;20033;-83
2022/05/07 03:18:12;;;;;;;20.42;18.25;;;16.00;99.90;;;;;;4978046;28;20034;-84
2022/05/07 03:20:38;;;;;;;21.48;19.27;;;16.00;99.90;;;;;;4961762;28;20034;-83
2022/05/07 03:23:04;;;;;;;20.92;18.83;;;16.00;99.90;;;;;;4977471;28;20042;-83
2022/05/07 03:25:29;;;;;;;22.02;19.38;;;16.00;99.90;;;;;;4961354;28;20146;-84
2022/05/07 03:27:55;;;;;;;24.02;21.25;;;15.90;99.90;;;;;;4961921;28;20038;-84
2022/05/07 03:30:21;;;;;;;23.33;20.02;;;15.90;99.90;;;;;;4961541;28;20429;-83
2022/05/07 03:32:47;;;;;;;22.10;19.83;;;15.90;99.90;;;;;;4977458;28;20022;-83
2022/05/07 03:35:12;;;;;;;23.80;21.33;;;15.90;99.90;;;;;;4977359;28;20030;-84
2022/05/07 03:37:38;;;;;;;23.20;20.77;;;15.90;99.90;;;;;;4961392;28;20116;-83
2022/05/07 03:40:04;;;;;;;23.67;19.58;;;15.90;99.90;;;;;;4961023;28;20035;-83
2022/05/07 03:42:33;;;;;;;22.17;19.98;;;15.90;99.90;;;;;;4961329;28;20046;-83
2022/05/07 03:45:00;;;;;;;22.35;19.95;;;15.90;99.90;;;;;;4977823;28;20034;-83
2022/05/07 03:47:25;;;;;;;25.38;20.33;;;15.80;99.90;;;;;;4976678;28;20052;-83
2022/05/07 03:49:51;;;;;;;21.95;19.73;;;15.80;99.90;;;;;;4977312;28;20035;-83
2022/05/07 03:55:01;;;;;;;23.70;21.17;;;15.80;99.90;;;;;;4979759;28;20097;-83
2022/05/07 03:57:26;;;;;;;22.63;20.40;;;15.80;99.90;;;;;;4961195;28;20431;-83
2022/05/07 03:59:52;;;;;;;23.10;20.60;;;15.80;99.90;;;;;;4945125;28;20034;-83
2022/05/07 04:02:17;;;;;;;23.10;20.35;;;15.80;99.90;;;;;;4960473;28;20479;-83
2022/05/07 04:04:44;;;;;;;23.38;21.00;;;15.80;99.90;;;;;;4961042;28;20089;-83
2022/05/07 04:07:09;;;;;;;22.75;19.88;;;15.80;99.90;;;;;;4960635;28;20120;-83
2022/05/07 04:09:36;;;;;;;25.20;20.15;;;15.80;99.90;;;;;;4976924;28;20109;-83
2022/05/07 04:12:01;;;;;;;22.75;20.48;;;15.80;99.90;;;;;;4976938;28;20459;-84
2022/05/07 04:14:28;;;;;;;25.60;22.13;;;15.70;99.90;;;;;;4960378;28;20085;-83
2022/05/07 04:16:53;;;;;;;23.98;21.52;;;15.70;99.90;;;;;;4976587;28;20125;-82
2022/05/07 04:19:19;;;;;;;26.10;22.00;;;15.70;99.90;;;;;;4976614;28;20114;-83
2022/05/07 04:21:45;;;;;;;23.48;21.13;;;15.70;99.90;;;;;;4976639;28;20475;-83
2022/05/07 04:24:10;;;;;;;24.17;21.58;;;15.70;99.90;;;;;;4976900;28;20038;-83
2022/05/07 04:26:36;;;;;;;22.83;20.35;;;15.70;99.90;;;;;;4976661;28;20029;-83
2022/05/07 04:29:02;;;;;;;23.30;21.00;;;15.60;99.90;;;;;;4960532;28;20467;-83
2022/05/07 04:31:28;;;;;;;25.05;22.58;;;15.60;99.90;;;;;;4976643;28;20065;-81
2022/05/07 04:33:53;;;;;;;24.08;21.52;;;15.60;99.90;;;;;;4960582;28;20057;-82
2022/05/07 04:36:19;;;;;;;24.17;21.75;;;15.60;99.90;;;;;;4960216;28;20030;-82
2022/05/07 04:38:45;;;;;;;26.38;22.50;;;15.60;99.90;;;;;;4976925;28;20081;-82
2022/05/07 04:41:10;;;;;;;26.00;23.17;;;15.60;99.90;;;;;;4944301;28;20030;-82
2022/05/07 04:43:36;;;;;;;27.15;22.80;;;15.60;99.90;;;;;;4976729;28;20034;-81
2022/05/07 04:46:02;;;;;;;25.92;23.17;;;15.60;99.90;;;;;;4993606;28;20050;-82
2022/05/07 04:48:27;;;;;;;27.33;23.52;;;15.60;99.90;;;;;;4960798;28;20034;-82
2022/05/07 04:50:53;;;;;;;25.02;22.42;;;15.60;99.90;;;;;;4944805;28;20037;-82
2022/05/07 04:53:19;;;;;;;25.67;22.98;;;15.60;99.90;;;;;;4994306;28;20088;-82
2022/05/07 04:55:45;;;;;;;26.08;23.38;;;15.60;99.90;;;;;;4960654;28;20064;-82
2022/05/07 04:58:11;;;;;;;31.70;25.08;;;15.60;99.90;;;;;;4944882;28;20026;-82
2022/05/07 05:00:36;;;;;;;28.25;25.35;;;15.60;99.90;;;;;;4945185;28;20031;-82
2022/05/07 05:03:02;;;;;;;29.08;25.02;;;15.60;99.90;;;;;;4944406;28;20026;-82
2022/05/07 05:05:29;;;;;;;31.92;25.17;;;15.60;99.90;;;;;;4960873;28;20037;-82
2022/05/07 05:07:55;;;;;;;31.30;25.58;;;15.60;99.90;;;;;;4961044;28;20069;-82
2022/05/07 05:10:20;;;;;;;27.63;24.63;;;15.60;99.90;;;;;;4960304;28;20038;-83
2022/05/07 05:12:46;;;;;;;30.08;25.08;;;15.60;99.90;;;;;;4945474;28;20026;-83
2022/05/07 05:15:13;;;;;;;32.10;25.60;;;15.60;99.90;;;;;;4961201;28;20031;-83
2022/05/07 05:17:39;;;;;;;32.00;25.77;;;15.60;99.90;;;;;;4961040;28;20041;-83
2022/05/07 05:20:06;;;;;;;27.85;24.70;;;15.60;99.90;;;;;;4978474;28;20030;-84
2022/05/07 05:22:31;;;;;;;34.92;25.15;;;15.60;99.90;;;;;;4989970;28;20034;-83
2022/05/07 05:24:57;;;;;;;27.90;24.88;;;15.60;99.90;;;;;;5004344;28;20177;-82
2022/05/07 05:27:23;;;;;;;28.40;24.52;;;15.60;99.90;;;;;;4965633;28;20038;-83
2022/05/07 05:29:49;;;;;;;26.77;23.98;;;15.70;99.90;;;;;;4997279;28;20455;-83
2022/05/07 05:32:17;;;;;;;26.50;23.60;;;15.70;99.90;;;;;;4963716;28;20089;-84
2022/05/07 05:34:52;;;;;;;31.48;23.50;;;15.70;99.90;;;;;;4948497;28;20030;-84
2022/05/07 05:37:18;;;;;;;26.48;22.73;;;15.70;99.90;;;;;;4963679;28;20041;-82
2022/05/07 05:39:44;;;;;;;29.73;22.83;;;15.70;99.90;;;;;;4980246;28;20125;-82
2022/05/07 05:42:10;;;;;;;26.02;23.10;;;15.70;99.90;;;;;;4996937;28;20149;-82
2022/05/07 05:44:39;;;;;;;27.23;23.83;;;15.70;99.90;;;;;;4979433;28;20544;-82
2022/05/07 05:47:09;;;;;;;25.25;22.55;;;15.70;99.90;;;;;;4959724;28;20575;-86
2022/05/07 05:49:35;;;;;;;24.60;22.00;;;15.70;99.90;;;;;;4947122;28;20039;-83
2022/05/07 05:52:02;;;;;;;25.08;22.17;;;15.70;99.90;;;;;;4959751;28;20037;-83
2022/05/07 05:54:29;;;;;;;26.20;22.90;;;15.70;99.90;;;;;;4975980;28;20027;-83
2022/05/07 05:56:55;;;;;;;26.98;23.35;;;15.70;99.90;;;;;;4960263;28;20023;-83
2022/05/07 05:59:20;;;;;;;29.02;23.83;;;15.70;99.90;;;;;;4977171;28;20035;-82
2022/05/07 06:01:47;;;;;;;26.58;22.90;;;15.70;99.90;;;;;;4959919;28;20034;-83
2022/05/07 06:04:14;;;;;;;28.35;24.65;;;15.70;99.90;;;;;;4975899;28;20034;-83
2022/05/07 06:06:40;;;;;;;25.05;22.40;;;15.70;99.90;;;;;;4960019;28;20459;-82
2022/05/07 06:09:06;;;;;;;29.02;23.30;;;15.70;99.90;;;;;;4977118;28;20506;-82
2022/05/07 06:11:32;;;;;;;27.90;24.65;;;15.70;99.90;;;;;;4959543;28;20034;-82
2022/05/07 06:13:57;;;;;;;26.15;23.35;;;15.70;99.90;;;;;;4975944;28;20410;-82
2022/05/07 06:16:23;;;;;;;27.25;23.23;;;15.70;99.90;;;;;;4959551;28;20502;-83
2022/05/07 06:18:49;;;;;;;28.13;22.92;;;15.70;99.90;;;;;;4975702;28;20031;-83
2022/05/07 06:21:15;;;;;;;29.83;24.58;;;15.70;99.90;;;;;;4976432;28;20039;-83
2022/05/07 06:23:40;;;;;;;28.83;23.63;;;15.70;99.90;;;;;;4943487;28;20129;-83
2022/05/07 06:28:51;;;;;;;30.58;23.98;;;15.70;99.90;;;;;;4976552;28;20379;-82
2022/05/07 06:31:17;;;;;;;30.70;24.02;;;15.70;99.90;;;;;;4975273;28;20034;-82
2022/05/07 06:33:43;;;;;;;28.05;23.10;;;15.70;99.90;;;;;;4959571;28;20027;-83
2022/05/07 06:36:09;;;;;;;29.65;23.83;;;15.70;99.90;;;;;;4958604;28;20035;-83
2022/05/07 06:38:35;;;;;;;31.65;23.77;;;15.70;99.90;;;;;;4975211;28;20033;-82
2022/05/07 06:41:02;;;;;;;28.67;22.58;;;15.80;99.90;;;;;;4976452;28;20038;-83
2022/05/07 06:43:33;;;;;;;25.00;20.65;;;15.80;99.90;;;;;;4974928;28;20066;-82
2022/05/07 06:45:59;;;;;;;23.33;20.02;;;15.80;99.90;;;;;;4977082;28;20019;-83
2022/05/07 06:48:26;;;;;;;23.92;18.98;;;15.80;99.90;;;;;;4978081;28;20056;-83
2022/05/07 06:50:53;;;;;;;25.05;19.33;;;15.80;99.90;;;;;;4978445;28;20114;-83
2022/05/07 06:53:18;;;;;;;23.83;20.38;;;15.90;99.90;;;;;;4977664;28;20030;-82
2022/05/07 06:55:56;;;;;;;23.17;17.48;;;15.90;99.90;;;;;;4962167;28;20081;-82
2022/05/07 06:58:22;;;;;;;21.35;17.73;;;15.90;99.90;;;;;;4995497;28;20054;-82
2022/05/07 07:00:48;;;;;;;21.45;16.70;;;16.00;99.90;;;;;;4978078;28;20049;-82
2022/05/07 07:03:14;;;;;;;25.58;16.45;;;16.00;99.90;;;;;;4978113;28;20118;-84
2022/05/07 07:05:40;;;;;;;24.20;16.63;;;16.00;99.90;;;;;;4961999;28;20065;-84
2022/05/07 07:08:06;;;;;;;21.17;16.88;;;16.00;99.90;;;;;;4978132;28;20542;-83
2022/05/07 07:10:31;;;;;;;19.75;16.02;;;16.10;99.90;;;;;;4977955;28;20041;-84
2022/05/07 07:12:57;;;;;;;21.17;16.58;;;16.10;99.90;;;;;;4962108;28;20378;-83
2022/05/07 07:15:23;;;;;;;23.63;16.73;;;16.10;99.90;;;;;;4961659;28;20117;-83
2022/05/07 07:17:49;;;;;;;22.17;16.45;;;16.20;99.90;;;;;;4977930;28;20030;-83
2022/05/07 07:20:15;;;;;;;20.98;16.17;;;16.30;99.90;;;;;;4961234;28;20022;-91
2022/05/07 07:22:41;;;;;;;20.70;16.35;;;16.30;99.90;;;;;;4946027;28;20038;-83
2022/05/07 07:25:07;;;;;;;23.08;15.70;;;16.40;99.90;;;;;;4994838;28;20030;-83
2022/05/07 07:27:34;;;;;;;22.50;16.38;;;16.40;99.90;;;;;;4961349;28;20027;-83
2022/05/07 07:30:00;;;;;;;21.67;15.20;;;16.50;99.90;;;;;;4977727;28;20478;-83
2022/05/07 07:32:25;;;;;;;25.23;16.80;;;16.60;99.90;;;;;;4977178;28;20038;-82
2022/05/07 07:34:51;;;;;;;22.73;15.52;;;16.60;99.90;;;;;;4961593;28;20026;-83
2022/05/07 07:37:17;;;;;;;22.92;15.50;;;16.70;99.90;;;;;;4961597;28;20037;-89
2022/05/07 07:39:43;;;;;;;20.08;14.40;;;16.80;99.90;;;;;;4977459;28;20126;-83
2022/05/07 07:42:08;;;;;;;19.70;14.10;;;16.80;99.90;;;;;;4961380;28;20056;-83
2022/05/07 07:44:34;;;;;;;21.25;14.15;;;16.90;99.90;;;;;;4961389;28;20084;-83
2022/05/07 07:49:44;;;;;;;20.75;14.15;;;17.00;99.90;;;;;;4979569;28;20122;-83
2022/05/07 07:52:10;;;;;;;20.05;14.30;;;17.10;99.90;;;;;;4961318;28;20111;-83
2022/05/07 07:54:35;;;;;;;20.25;13.50;;;17.10;99.90;;;;;;4994492;28;20526;-83
2022/05/07 07:57:04;;;;;;;18.15;13.15;;;17.20;99.90;;;;;;4960749;28;20026;-84
2022/05/07 07:59:30;;;;;;;19.20;14.93;;;17.30;99.90;;;;;;4977133;28;20018;-83
2022/05/07 08:01:56;;;;;;;22.40;15.27;;;17.30;99.90;;;;;;4961040;28;20034;-83
2022/05/07 08:04:25;;;;;;;23.80;15.52;;;17.40;99.90;;;;;;4994381;28;20439;-84
2022/05/07 08:12:26;;;;;;;22.58;15.05;;;17.60;99.90;;;;;;4994455;28;20037;-83
2022/05/07 08:14:51;;;;;;;21.30;14.05;;;17.70;99.90;;;;;;4961162;28;20022;-83
2022/05/07 08:17:17;;;;;;;25.17;14.65;;;17.80;99.90;;;;;;4977078;28;20446;-83
2022/05/07 08:19:43;;;;;;;22.75;15.55;;;17.80;99.90;;;;;;4944639;28;20065;-83
2022/05/07 08:22:09;;;;;;;19.83;13.65;;;17.90;99.90;;;;;;4976876;28;20483;-83
2022/05/07 08:24:36;;;;;;;21.52;14.25;;;18.00;99.90;;;;;;4976957;28;20057;-82
2022/05/07 08:27:02;;;;;;;20.25;14.40;;;18.00;99.80;;;;;;4945008;28;20026;-83
2022/05/07 08:29:28;;;;;;;18.75;13.45;;;18.10;99.50;;;;;;4960681;28;20121;-83
2022/05/07 08:31:54;;;;;;;19.65;13.38;;;18.30;99.60;;;;;;4976939;28;20030;-83
2022/05/07 08:34:19;;;;;;;21.55;12.57;;;18.30;99.00;;;;;;4976819;28;20019;-82
2022/05/07 08:36:45;;;;;;;17.60;12.20;;;18.30;98.60;;;;;;4961132;28;20065;-83
2022/05/07 08:39:11;;;;;;;19.50;11.45;;;18.40;98.40;;;;;;4963280;28;20038;-82
2022/05/07 08:41:36;;;;;;;16.38;10.88;;;18.50;98.20;;;;;;4978496;28;20438;-82
2022/05/07 08:44:02;;;;;;;18.38;10.90;;;18.50;98.00;;;;;;4962752;28;20026;-82
2022/05/07 08:46:28;;;;;;;15.35;9.80;;;18.60;98.10;;;;;;4977583;28;20050;-83
2022/05/07 08:48:54;;;;;;;13.90;9.90;;;18.70;98.00;;;;;;4994546;28;20039;-83
2022/05/07 08:51:21;;;;;;;20.13;10.20;;;18.70;97.90;;;;;;4976556;28;20026;-83
2022/05/07 08:53:53;;;;;;;18.45;10.35;;;18.80;97.70;;;;;;4960209;28;20034;-83
2022/05/07 08:56:19;;;;;;;21.15;11.27;;;18.90;97.40;;;;;;4976457;28;20069;-83
2022/05/07 08:58:49;;;;;;;16.00;10.38;;;18.90;96.50;;;;;;4976226;28;20042;-83
2022/05/07 09:01:15;;;;;;;17.05;9.57;;;19.00;96.20;;;;;;4963910;28;20038;-84
2022/05/07 09:03:48;;;;;;;15.52;9.88;;;19.10;96.30;;;;;;4980216;28;20072;-83
2022/05/07 09:06:21;;;;;;;16.58;10.27;;;19.20;96.70;;;;;;4997622;28;20022;-83
2022/05/07 09:08:48;;;;;;;15.48;10.07;;;19.20;96.80;;;;;;4980173;28;20031;-83
2022/05/07 09:11:15;;;;;;;16.02;9.98;;;19.30;96.40;;;;;;4997892;28;20038;-83
2022/05/07 09:13:41;;;;;;;16.13;9.60;;;19.40;96.50;;;;;;4980273;28;20467;-83
2022/05/07 09:16:08;;;;;;;15.55;10.00;;;19.50;96.70;;;;;;4997803;28;20474;-83
2022/05/07 09:18:34;;;;;;;16.15;10.27;;;19.60;96.90;;;;;;4964069;28;20030;-84
2022/05/07 09:21:25;;;;;;;15.00;10.02;;;19.60;96.90;;;;;;4980016;28;20126;-83
2022/05/07 09:24:06;;;;;;;18.63;11.27;;;19.70;96.50;;;;;;4979710;28;20033;-83
2022/05/07 09:26:39;;;;;;;15.35;9.98;;;19.80;96.20;;;;;;4979739;28;20474;-83
2022/05/07 09:29:10;;;;;;;13.82;8.90;;;19.80;96.10;;;;;;4979979;28;20026;-83
2022/05/07 09:31:37;;;;;;;13.45;9.75;;;19.90;96.30;;;;;;4963761;28;20521;-84
2022/05/07 09:37:01;;;;;;;21.58;10.45;;;20.00;96.50;;;;;;4997387;28;20041;-83
2022/05/07 09:39:34;;;;;;;14.57;10.15;;;20.10;96.30;;;;;;4979614;28;20088;-83
2022/05/07 09:42:01;;;;;;;17.10;10.63;;;20.20;96.30;;;;;;4996548;28;20509;-83
2022/05/07 09:44:28;;;;;;;17.83;9.98;;;20.30;96.30;;;;;;4963481;28;20026;-83
2022/05/07 09:46:55;;;;;;;17.52;9.70;;;20.30;96.30;;;;;;4979069;28;20509;-83
2022/05/07 09:49:25;;;;;;;18.27;11.60;;;20.40;96.10;;;;;;4963650;28;20026;-84
2022/05/07 09:51:52;;;;;;;16.67;10.32;;;20.50;94.70;;;;;;4996771;28;20197;-84
2022/05/07 09:59:50;;;;;;;14.10;8.95;;;20.60;93.40;;;;;;4982065;28;20068;-82
2022/05/07 10:02:33;;;;;;;14.65;8.40;;;20.70;93.50;;;;;;4979145;28;20066;-83
2022/05/07 10:05:11;;;;;;;15.57;9.23;;;20.80;93.70;;;;;;4979479;28;20026;-83
2022/05/07 10:08:13;;;;;;;13.05;7.93;;;20.90;93.70;;;;;;4996518;28;20105;-83
2022/05/07 10:10:40;;;;;;;12.27;8.30;;;20.90;93.60;;;;;;4978811;28;20070;-83
2022/05/07 10:13:07;;;;;;;13.35;8.80;;;21.00;93.40;;;;;;4962549;28;20034;-80
2022/05/07 10:15:33;;;;;;;12.27;8.25;;;21.10;93.30;;;;;;4979193;28;20027;-83
2022/05/07 10:18:02;;;;;;;13.77;8.32;;;21.10;93.40;;;;;;4963086;28;20026;-83
2022/05/07 10:20:40;;;;;;;14.68;8.65;;;21.20;93.80;;;;;;4996392;28;20036;-82
2022/05/07 10:23:10;;;;;;;14.48;8.13;;;21.20;93.90;;;;;;4996337;28;20038;-84
2022/05/07 10:25:37;;;;;;;11.65;7.90;;;21.30;93.90;;;;;;4978740;28;20058;-90
2022/05/07 10:28:13;;;;;;;11.60;7.72;;;21.30;93.90;;;;;;4978705;28;20034;-85
2022/05/07 10:31:15;;;;;;;12.55;7.65;;;21.40;93.70;;;;;;4978591;28;20375;-85
2022/05/07 10:33:40;;;;;;;13.80;7.65;;;21.40;93.80;;;;;;4995717;28;20510;-85
2022/05/07 10:36:10;;;;;;;12.18;8.43;;;21.50;94.00;;;;;;4946366;28;20031;-84
2022/05/07 10:38:38;;;;;;;13.15;8.93;;;21.50;94.00;;;;;;4978601;28;20030;-84
2022/05/07 10:41:07;;;;;;;13.05;8.68;;;21.60;93.30;;;;;;4996504;28;20035;-85
2022/05/07 10:43:35;;;;;;;14.05;8.50;;;21.60;93.10;;;;;;4979266;28;20022;-86
2022/05/07 10:46:06;;;;;;;13.63;8.63;;;21.60;92.90;;;;;;4979077;28;20023;-86
2022/05/07 10:48:45;;;;;;;12.32;8.23;;;21.70;92.40;;;;;;4996285;28;20113;-87
2022/05/07 10:51:20;;;;;;;11.98;8.02;;;21.70;92.50;;;;;;4978816;28;20401;-83
2022/05/07 10:53:47;;;;;;;12.32;8.20;;;21.80;92.80;;;;;;4995302;28;20526;-83
2022/05/07 10:56:18;;;;;;;13.70;8.90;;;21.80;92.60;;;;;;4961991;28;20046;-83
2022/05/07 10:58:44;;;;;;;;;;;21.90;92.40;;;;;;4978446;28;20466;-83
2022/05/07 11:01:10;;;;;;;14.35;8.93;;;21.90;91.60;;;;;;4978150;28;20273;-82
2022/05/07 11:03:36;;;;;;;13.68;8.70;;;21.90;90.80;;;;;;4946205;28;20355;-83
2022/05/07 11:06:02;;;;;;;12.75;8.25;;;21.90;90.30;;;;;;4995604;28;20027;-83
2022/05/07 11:08:30;;;;;;;10.35;7.00;;;22.00;90.70;;;;;;4995424;28;20027;-83
2022/05/07 11:11:10;;;;;;;13.68;8.27;;;22.00;91.10;;;;;;4977934;28;20034;-83
2022/05/07 11:13:55;;;;;;;10.10;7.40;;;22.20;91.20;;;;;;4995428;28;20101;-83
2022/05/07 11:16:23;;;;;;;11.82;7.65;;;22.30;91.40;;;;;;4995633;28;20030;-83
2022/05/07 11:18:51;;;;;;;11.90;7.70;;;22.30;91.80;;;;;;4977268;28;20023;-82
2022/05/07 11:21:24;;;;;;;13.23;7.95;;;22.40;91.70;;;;;;4977491;28;20031;-83
2022/05/07 11:23:54;;;;;;;11.93;7.50;;;22.50;91.50;;;;;;4994925;28;20057;-83
2022/05/07 11:26:20;;;;;;;14.10;8.20;;;22.50;91.30;;;;;;4977731;28;20073;-83
2022/05/07 11:28:47;;;;;;;16.80;7.10;;;22.60;91.50;;;;;;4977389;28;20027;-84
2022/05/07 11:31:25;;;;;;;12.07;8.57;;;22.70;91.50;;;;;;4961557;28;20030;-83
2022/05/07 11:34:10;;;;;;;11.00;7.00;;;22.80;91.60;;;;;;4977172;28;20026;-83
2022/05/07 11:36:36;;;;;;;8.88;6.50;;;22.80;91.30;;;;;;4995013;28;20056;-83
2022/05/07 11:39:09;;;;;;;16.42;7.50;;;22.90;91.00;;;;;;4961446;28;20056;-83
2022/05/07 11:41:37;;;;;;;10.88;6.72;;;22.90;90.60;;;;;;4994719;28;20026;-83
2022/05/07 11:46:56;;;;;;;9.90;6.35;;;22.90;90.50;;;;;;4979665;28;20084;-84
2022/05/07 11:49:28;;;;;;;13.38;7.18;;;22.90;90.10;;;;;;4977179;28;20054;-83
2022/05/07 11:52:05;;;;;;;10.75;7.38;;;22.90;90.00;;;;;;4977103;28;20041;-84
2022/05/07 11:54:30;;;;;;;9.43;7.05;;;22.90;89.20;;;;;;4977292;28;20023;-83
2022/05/07 11:56:56;;;;;;;11.32;7.53;;;22.90;88.50;;;;;;4977235;28;20106;-83
2022/05/07 11:59:22;;;;;;;12.27;7.43;;;22.80;88.00;;;;;;4996643;28;20030;-83
2022/05/07 12:01:49;;;;;;;9.98;6.63;;;22.90;87.70;;;;;;4979044;28;20046;-83
2022/05/07 12:04:14;;;;;;;12.73;7.15;;;22.80;87.20;;;;;;4994632;28;20026;-83
2022/05/07 12:06:40;;;;;;;10.63;6.35;;;22.80;86.90;;;;;;4945211;28;20031;-83
2022/05/07 12:09:13;;;;;;;13.93;6.60;;;22.80;86.40;;;;;;4960691;28;20475;-83
2022/05/07 12:11:41;;;;;;;8.85;6.30;;;22.80;86.70;;;;;;4977218;28;20173;-83
2022/05/07 12:14:07;;;;;;;8.98;6.40;;;22.80;87.20;;;;;;4976621;28;20031;-83
2022/05/07 12:19:26;;;;;;;12.70;6.18;;;22.90;89.60;;;;;;4994469;28;20502;-83
2022/05/07 12:30:05;;;;;;;7.75;5.32;;;23.00;90.50;;;;;;4979110;28;20493;-84
2022/05/07 12:32:30;;;;;;;8.63;5.68;;;23.00;90.50;;;;;;4976535;28;20073;-84
2022/05/07 12:34:56;;;;;;;10.73;5.30;;;22.90;90.50;;;;;;4976038;28;20022;-84
2022/05/07 12:37:21;;;;;;;10.88;5.20;;;22.90;90.40;;;;;;4960335;28;20030;-84
2022/05/07 12:39:47;;;;;;;8.00;5.32;;;22.90;90.30;;;;;;4996632;28;20034;-84
2022/05/07 12:42:13;;;;;;;9.63;5.97;;;22.90;90.30;;;;;;4944448;28;20462;-84
2022/05/07 12:44:45;;;;;;;9.10;5.63;;;23.00;90.30;;;;;;4944655;28;20050;-84
2022/05/07 12:47:11;;;;;;;11.25;6.20;;;22.90;90.50;;;;;;4976092;28;20030;-84
2022/05/07 12:49:37;;;;;;;8.35;5.68;;;22.90;90.60;;;;;;4976239;28;20031;-84
2022/05/07 12:52:07;;;;;;;10.18;6.15;;;23.00;90.80;;;;;;4960195;28;20026;-84
2022/05/07 12:54:33;;;;;;;11.15;5.88;;;23.00;90.80;;;;;;4993557;28;20105;-84
2022/05/07 12:56:59;;;;;;;10.02;6.38;;;22.90;90.70;;;;;;4944616;28;20450;-84
2022/05/07 12:59:24;;;;;;;10.48;6.40;;;23.00;90.70;;;;;;4944594;28;20109;-83
2022/05/07 13:01:50;;;;;;;11.18;6.20;;;23.00;90.80;;;;;;4976037;28;20036;-83
2022/05/07 13:04:16;;;;;;;10.60;6.72;;;23.00;90.80;;;;;;4976107;28;20081;-84
2022/05/07 13:06:41;;;;;;;9.73;6.20;;;23.00;90.80;;;;;;4960189;28;20037;-84
2022/05/07 13:09:07;;;;;;;10.32;6.20;;;23.00;90.80;;;;;;4976244;28;20027;-84
2022/05/07 13:11:33;;;;;;;11.20;6.30;;;23.00;90.80;;;;;;4976481;28;20041;-83
2022/05/07 13:13:59;;;;;;;8.55;5.90;;;23.00;90.90;;;;;;4975981;28;20030;-83
2022/05/07 13:16:25;;;;;;;8.10;5.68;;;23.10;90.90;;;;;;4975995;28;20072;-83
2022/05/07 13:18:51;;;;;;;8.38;6.15;;;23.10;90.60;;;;;;4993479;28;20040;-84